createdAt,value
2022-08-21T11:22:21.175Z,1007.61
2022-08-21T11:23:21.248Z,1007.59
2022-08-21T11:24:21.123Z,1007.55
2022-08-21T11:25:21.120Z,1007.51
2022-08-21T11:26:21.101Z,1007.52
2022-08-21T11:27:21.110Z,1007.48
2022-08-21T11:28:21.086Z,1007.50
2022-08-21T11:29:21.068Z,1007.45
2022-08-21T11:30:21.055Z,1007.45
2022-08-21T11:31:21.040Z,1007.46
2022-08-21T11:32:21.048Z,1007.41
2022-08-21T11:33:21.014Z,1007.36
2022-08-21T11:34:21.924Z,1007.42
2022-08-21T11:35:20.987Z,1007.40
2022-08-21T11:36:20.990Z,1007.39
2022-08-21T11:37:20.981Z,1007.41
2022-08-21T11:38:23.255Z,1007.39
2022-08-21T11:39:20.995Z,1007.35
2022-08-21T11:40:20.988Z,1007.35
2022-08-21T11:41:21.002Z,1007.33
2022-08-21T11:42:20.921Z,1007.31
2022-08-21T11:43:20.897Z,1007.29
2022-08-21T11:44:20.889Z,1007.30
2022-08-21T11:45:20.885Z,1007.34
2022-08-21T11:46:20.866Z,1007.32
2022-08-21T11:47:20.887Z,1007.31
2022-08-21T11:48:20.852Z,1007.26
2022-08-21T11:49:20.831Z,1007.33
2022-08-21T11:50:34.457Z,1007.31
2022-08-21T11:51:20.812Z,1007.32
2022-08-21T11:52:20.827Z,1007.32
2022-08-21T11:53:20.798Z,1007.32
2022-08-21T11:54:20.777Z,1007.28
2022-08-21T11:55:23.783Z,1007.28
2022-08-21T11:56:20.764Z,1007.31
2022-08-21T11:57:20.761Z,1007.34
2022-08-21T11:58:20.746Z,1007.35
2022-08-21T11:59:20.736Z,1007.34
2022-08-21T12:00:20.725Z,1007.29
2022-08-21T12:01:20.708Z,1007.30
2022-08-21T12:02:20.788Z,1007.28
2022-08-21T12:03:20.691Z,1007.32
2022-08-21T12:04:20.674Z,1007.30
2022-08-21T12:05:20.674Z,1007.31
2022-08-21T12:06:24.316Z,1007.30
2022-08-21T12:07:20.656Z,1007.23
2022-08-21T12:08:20.640Z,1007.29
2022-08-21T12:09:20.635Z,1007.32
2022-08-21T12:10:20.619Z,1007.24
2022-08-21T12:11:20.603Z,1007.25
2022-08-21T12:12:20.620Z,1007.27
2022-08-21T12:13:20.592Z,1007.25
2022-08-21T12:14:20.571Z,1007.26
2022-08-21T12:15:20.564Z,1007.29
2022-08-21T12:16:20.550Z,1007.26
2022-08-21T12:17:20.675Z,1007.23
2022-08-21T12:18:20.534Z,1007.23
2022-08-21T12:19:20.524Z,1007.23
2022-08-21T12:20:20.511Z,1007.20
2022-08-21T12:21:20.511Z,1007.17
2022-08-21T12:22:20.497Z,1007.20
2022-08-21T12:23:20.496Z,1007.17
2022-08-21T12:24:20.481Z,1007.17
2022-08-21T12:25:21.925Z,1007.18
2022-08-21T12:26:20.452Z,1007.09
2022-08-21T12:27:20.442Z,1007.11
2022-08-21T12:28:20.453Z,1007.10
2022-08-21T12:29:20.425Z,1007.10
2022-08-21T12:30:20.423Z,1007.10
2022-08-21T12:31:20.403Z,1007.13
2022-08-21T12:32:20.459Z,1007.07
2022-08-21T12:33:20.406Z,1007.07
2022-08-21T12:34:20.389Z,1007.02
2022-08-21T12:35:25.167Z,1007.02
2022-08-21T12:36:20.362Z,1007.03
2022-08-21T12:37:20.365Z,1007.05
2022-08-21T12:38:20.343Z,1007.09
2022-08-21T12:39:20.339Z,1007.05
2022-08-21T12:40:20.464Z,1007.04
2022-08-21T12:41:20.313Z,1007.09
2022-08-21T12:42:20.305Z,1006.99
2022-08-21T12:43:20.296Z,1007.09
2022-08-21T12:44:20.289Z,1007.05
2022-08-21T12:45:20.282Z,1007.07
2022-08-21T12:46:20.267Z,1007.04
2022-08-21T12:47:20.290Z,1007.05
2022-08-21T12:48:20.240Z,1007.05
2022-08-21T12:49:20.251Z,1006.94
2022-08-21T12:50:20.222Z,1007.03
2022-08-21T12:51:20.228Z,1007.06
2022-08-21T12:52:20.216Z,1007.06
2022-08-21T12:53:20.823Z,1007.03
2022-08-21T12:54:20.199Z,1007.04
2022-08-21T12:55:20.188Z,1007.01
2022-08-21T12:56:20.166Z,1007.03
2022-08-21T12:57:20.161Z,1006.97
2022-08-21T12:58:20.162Z,1007.03
2022-08-21T12:59:20.160Z,1007.03
2022-08-21T13:00:20.154Z,1007.02
2022-08-21T13:01:20.171Z,1007.05
2022-08-21T13:02:20.126Z,1007.02
2022-08-21T13:03:20.120Z,1006.99
2022-08-21T13:04:20.107Z,1007.00
2022-08-21T13:05:20.101Z,1006.98
2022-08-21T13:06:20.084Z,1006.97
2022-08-21T13:07:20.076Z,1006.92
2022-08-21T13:08:20.063Z,1006.77
2022-08-21T13:09:20.076Z,1006.79
2022-08-21T13:10:56.378Z,1006.96
2022-08-21T13:11:56.361Z,1006.92
2022-08-21T13:12:56.365Z,1006.96
2022-08-21T13:13:59.099Z,1006.97
2022-08-21T13:14:56.340Z,1006.96
2022-08-21T13:15:56.333Z,1006.95
2022-08-21T13:16:56.318Z,1006.89
2022-08-21T13:17:56.323Z,1006.93
2022-08-21T13:18:56.316Z,1006.95
2022-08-21T13:19:56.309Z,1006.92
2022-08-21T13:20:56.297Z,1006.80
2022-08-21T13:21:56.287Z,1006.82
2022-08-21T13:24:25.500Z,1006.78
2022-08-21T13:25:07.483Z,1006.86
2022-08-21T13:26:06.878Z,1006.88
2022-08-21T13:27:06.868Z,1006.85
2022-08-21T13:28:06.860Z,1006.87
2022-08-21T13:29:06.863Z,1006.89
2022-08-21T13:30:06.833Z,1006.86
2022-08-21T13:31:06.832Z,1006.85
2022-08-21T13:32:06.824Z,1006.87
2022-08-21T13:33:10.951Z,1006.87
2022-08-21T13:34:06.811Z,1006.86
2022-08-21T13:35:06.791Z,1006.87
2022-08-21T13:36:06.783Z,1006.88
2022-08-21T13:37:06.806Z,1006.88
2022-08-21T13:38:06.770Z,1006.90
2022-08-21T13:39:06.787Z,1006.86
2022-08-21T13:40:06.813Z,1006.85
2022-08-21T13:41:06.749Z,1006.82
2022-08-21T13:42:06.748Z,1006.83
2022-08-21T13:43:06.744Z,1006.84
2022-08-21T13:44:06.760Z,1006.76
2022-08-21T13:45:06.731Z,1006.82
2022-08-21T13:46:06.710Z,1006.86
2022-08-21T13:47:06.715Z,1006.81
2022-08-21T13:48:06.915Z,1006.68
2022-08-21T13:49:06.707Z,1006.87
2022-08-21T13:50:06.687Z,1006.83
2022-08-21T13:51:06.680Z,1006.82
2022-08-21T13:52:06.680Z,1006.86
2022-08-21T13:53:06.674Z,1006.83
2022-08-21T13:54:06.658Z,1006.80
2022-08-21T13:55:06.661Z,1006.78
2022-08-21T13:56:06.638Z,1006.77
2022-08-21T13:57:33.024Z,1006.80
2022-08-21T13:58:32.999Z,1006.75
2022-08-21T13:59:33.012Z,1006.73
2022-08-21T14:00:33.000Z,1006.72
2022-08-21T14:01:33.069Z,1006.72
2022-08-21T14:02:32.985Z,1006.74
2022-08-21T14:03:32.976Z,1006.75
2022-08-21T14:04:32.969Z,1006.75
2022-08-21T14:05:32.966Z,1006.76
2022-08-21T14:06:32.957Z,1006.73
2022-08-21T14:07:32.941Z,1006.75
2022-08-21T14:08:32.938Z,1006.79
2022-08-21T14:09:32.933Z,1006.75
2022-08-21T14:10:32.946Z,1006.79
2022-08-21T14:11:32.926Z,1006.78
2022-08-21T14:12:32.912Z,1006.55
2022-08-21T14:13:32.912Z,1006.64
2022-08-21T14:14:32.906Z,1006.57
2022-08-21T14:15:32.842Z,1006.78
2022-08-21T14:16:32.818Z,1006.67
2022-08-21T14:17:33.731Z,1006.55
2022-08-21T14:18:32.804Z,1006.59
2022-08-21T14:19:32.800Z,1006.58
2022-08-21T14:20:32.815Z,1006.62
2022-08-21T14:21:32.791Z,1006.60
2022-08-21T14:22:32.776Z,1006.60
2022-08-21T14:23:32.786Z,1006.68
2022-08-21T14:24:36.609Z,1006.71
2022-08-21T14:25:32.784Z,1006.68
2022-08-21T14:26:32.761Z,1006.62
2022-08-21T14:27:32.749Z,1006.64
2022-08-21T14:28:32.745Z,1006.58
2022-08-21T14:29:34.480Z,1006.61
2022-08-21T14:30:32.748Z,1006.56
2022-08-21T14:31:32.737Z,1006.40
2022-08-21T14:36:59.525Z,1006.35
2022-08-21T14:37:59.514Z,1006.45
2022-08-21T14:38:59.506Z,1006.44
2022-08-21T14:39:59.604Z,1006.46
2022-08-21T14:40:59.490Z,1006.45
2022-08-21T14:41:59.478Z,1006.45
2022-08-21T14:42:59.604Z,1006.44
2022-08-21T14:44:06.094Z,1006.46
2022-08-21T14:44:59.478Z,1006.39
2022-08-21T14:45:59.453Z,1006.38
2022-08-21T14:46:59.444Z,1006.38
2022-08-21T14:47:59.437Z,1006.33
2022-08-21T14:48:59.438Z,1006.33
2022-08-21T14:49:59.447Z,1006.33
2022-08-21T14:51:00.638Z,1006.35
2022-08-21T14:51:59.569Z,1006.33
2022-08-21T14:52:59.611Z,1006.33
2022-08-21T14:53:59.407Z,1006.31
2022-08-21T14:54:59.408Z,1006.34
2022-08-21T14:55:59.380Z,1006.33
2022-08-21T14:56:59.376Z,1006.32
2022-08-21T14:57:59.367Z,1006.35
2022-08-21T14:58:59.368Z,1006.35
2022-08-21T15:00:01.877Z,1006.34
2022-08-21T15:00:59.437Z,1006.36
2022-08-21T15:01:59.342Z,1006.36
2022-08-21T15:02:59.541Z,1006.31
2022-08-21T15:03:59.337Z,1006.28
2022-08-21T15:04:59.323Z,1006.29
2022-08-21T15:05:59.308Z,1006.30
2022-08-21T15:06:59.296Z,1006.30
2022-08-21T15:07:59.304Z,1006.28
2022-08-21T15:08:59.274Z,1006.32
2022-08-21T15:09:59.292Z,1006.28
2022-08-21T15:11:11.452Z,1006.29
2022-08-21T15:11:59.255Z,1006.29
2022-08-21T15:12:59.436Z,1006.28
2022-08-21T15:13:59.247Z,1006.25
2022-08-21T15:14:59.244Z,1006.28
2022-08-21T15:15:59.219Z,1006.29
2022-08-21T15:16:59.208Z,1006.32
2022-08-21T15:17:59.214Z,1006.34
2022-08-21T15:18:59.193Z,1006.43
2022-08-21T15:19:59.218Z,1006.51
2022-08-21T15:20:59.182Z,1006.45
2022-08-21T15:21:59.180Z,1006.58
2022-08-21T15:22:59.326Z,1006.54
2022-08-21T15:23:59.151Z,1006.61
2022-08-21T15:24:59.159Z,1006.75
2022-08-21T15:25:59.870Z,1006.81
2022-08-21T15:26:59.120Z,1006.74
2022-08-21T15:27:59.129Z,1006.62
2022-08-21T15:28:59.118Z,1006.68
2022-08-21T15:29:59.118Z,1006.63
2022-08-21T15:30:59.096Z,1006.64
2022-08-21T15:31:59.083Z,1006.61
2022-08-21T15:32:59.255Z,1006.56
2022-08-21T15:33:59.067Z,1006.49
2022-08-21T15:34:59.070Z,1006.47
2022-08-21T15:35:59.067Z,1006.43
2022-08-21T15:36:59.046Z,1006.35
2022-08-21T15:37:59.052Z,1006.28
2022-08-21T15:38:59.042Z,1006.21
2022-08-21T16:38:22.025Z,1006.24
2022-08-21T16:39:21.935Z,1006.32
2022-08-21T16:40:22.016Z,1006.33
2022-08-21T16:41:21.923Z,1006.31
2022-08-21T16:42:21.905Z,1006.22
